createdAt,value
2018-03-03T00:00:17.962Z,78.60
2018-03-03T00:02:46.164Z,78.50
2018-03-03T00:05:14.342Z,78.50
2018-03-03T00:07:42.519Z,78.90
2018-03-03T00:10:10.723Z,78.80
2018-03-03T00:12:39.664Z,80.40
2018-03-03T00:15:07.842Z,80.40
2018-03-03T00:17:36.014Z,79.40
2018-03-03T00:20:04.198Z,78.70
2018-03-03T00:22:41.912Z,78.30
2018-03-03T00:25:10.318Z,78.30
2018-03-03T00:27:39.271Z,78.20
2018-03-03T00:30:07.487Z,78.10
2018-03-03T00:32:36.420Z,78.60
2018-03-03T00:35:04.598Z,78.60
2018-03-03T00:37:32.771Z,78.80
2018-03-03T00:40:01.145Z,78.70
2018-03-03T00:42:29.325Z,78.20
2018-03-03T00:44:57.503Z,78.10
2018-03-03T00:47:25.732Z,78.50
2018-03-03T00:49:54.710Z,78.40
2018-03-03T00:52:22.887Z,78.30
2018-03-03T00:54:51.840Z,78.40
2018-03-03T00:57:20.013Z,78.30
2018-03-03T00:59:48.193Z,78.20
2018-03-03T01:02:16.404Z,78.20
2018-03-03T01:04:45.533Z,78.40
2018-03-03T02:29:11.406Z,78.60
2018-03-03T02:31:40.354Z,80.60
2018-03-03T02:34:08.534Z,80.50
2018-03-03T02:36:36.733Z,80.50
2018-03-03T02:39:05.722Z,79.60
2018-03-03T02:41:34.681Z,79.70
2018-03-03T02:44:02.862Z,79.60
2018-03-03T02:46:31.051Z,79.30
2018-03-03T02:48:59.248Z,79.80
2018-03-03T02:51:28.208Z,79.00
2018-03-03T02:53:56.398Z,78.90
2018-03-03T02:56:24.580Z,78.50
2018-03-03T02:58:52.766Z,78.70
2018-03-03T03:01:21.710Z,78.50
2018-03-03T03:03:49.888Z,78.30
2018-03-03T03:06:18.107Z,78.60
2018-03-03T03:08:47.057Z,78.50
2018-03-03T03:11:15.255Z,78.40
2018-03-03T03:13:43.446Z,78.50
2018-03-03T03:16:12.393Z,78.40
2018-03-03T03:18:40.683Z,78.40
2018-03-03T03:21:08.878Z,78.10
2018-03-03T03:23:37.071Z,78.20
2018-03-03T03:26:06.010Z,78.90
2018-03-03T03:28:34.185Z,78.90
2018-03-03T03:31:02.399Z,79.00
2018-03-03T03:33:30.590Z,79.20
2018-03-03T03:35:59.550Z,79.90
2018-03-03T03:38:27.746Z,79.90
2018-03-03T03:40:55.976Z,80.20
2018-03-03T03:43:24.153Z,80.60
2018-03-03T03:45:52.326Z,81.10
2018-03-03T03:48:20.509Z,81.50
2018-03-03T03:50:48.732Z,81.60
2018-03-03T03:53:17.672Z,82.40
2018-03-03T03:55:45.860Z,82.40
2018-03-03T03:58:14.051Z,82.90
2018-03-03T04:00:42.234Z,83.40
2018-03-03T04:03:10.411Z,83.80
2018-03-03T04:05:39.366Z,84.40
2018-03-03T04:08:07.551Z,84.30
2018-03-03T04:10:35.756Z,84.80
2018-03-03T04:13:03.943Z,85.00
2018-03-03T04:15:32.907Z,85.40
2018-03-03T04:18:01.103Z,85.30
2018-03-03T04:20:30.051Z,85.50
2018-03-03T04:22:58.230Z,85.50
2018-03-03T04:25:26.434Z,85.70
2018-03-03T04:27:54.651Z,85.90
2018-03-03T04:30:22.859Z,85.90
2018-03-03T04:32:51.080Z,85.90
2018-03-03T04:35:20.045Z,86.10
2018-03-03T04:37:48.262Z,86.10
2018-03-03T04:40:16.436Z,86.10
2018-03-03T04:42:44.636Z,86.20
2018-03-03T04:45:12.845Z,86.10
2018-03-03T04:47:41.066Z,86.10
2018-03-03T04:50:09.290Z,86.40
2018-03-03T04:52:37.485Z,86.10
2018-03-03T04:55:05.672Z,86.20
2018-03-03T04:57:34.642Z,86.30
2018-03-03T05:03:09.867Z,86.30
2018-03-03T05:05:43.539Z,86.30
2018-03-03T05:08:15.398Z,86.60
2018-03-03T05:10:44.385Z,86.60
2018-03-03T05:13:15.157Z,86.60
2018-03-03T05:15:43.745Z,86.70
2018-03-03T05:18:17.577Z,86.60
2018-03-03T05:20:51.250Z,86.40
2018-03-03T05:26:28.663Z,86.40
2018-03-03T05:29:02.451Z,86.60
2018-03-03T05:31:36.153Z,86.60
2018-03-03T05:37:05.624Z,86.50
2018-03-03T05:39:39.308Z,86.70
2018-03-03T05:42:12.937Z,85.70
2018-03-03T05:44:53.859Z,85.70
2018-03-03T05:47:26.418Z,85.90
2018-03-03T05:50:00.972Z,85.90
2018-03-03T05:52:34.871Z,85.80
2018-03-03T05:55:08.659Z,85.80
2018-03-03T05:57:43.114Z,85.90
2018-03-03T06:00:16.822Z,85.80
2018-03-03T06:02:50.651Z,85.90
2018-03-03T06:05:24.330Z,86.00
2018-03-03T06:07:58.001Z,86.00
2018-03-03T06:10:27.493Z,86.40
2018-03-03T06:12:56.446Z,86.30
2018-03-03T06:15:24.671Z,86.20
2018-03-03T06:17:53.796Z,85.70
2018-03-03T06:20:22.009Z,85.60
2018-03-03T06:22:50.199Z,85.30
2018-03-03T06:25:18.411Z,85.40
2018-03-03T06:27:46.610Z,85.40
2018-03-03T06:30:14.794Z,84.90
2018-03-03T06:32:42.984Z,85.00
2018-03-03T06:35:11.174Z,84.80
2018-03-03T06:37:39.365Z,84.40
2018-03-03T06:40:08.318Z,84.00
2018-03-03T06:42:36.523Z,83.90
2018-03-03T06:45:04.737Z,83.70
2018-03-03T06:47:32.923Z,83.20
2018-03-03T06:50:01.130Z,83.50
2018-03-03T06:52:29.357Z,82.70
2018-03-03T06:54:57.550Z,83.00
2018-03-03T06:57:25.738Z,82.90
2018-03-03T06:59:53.923Z,82.40
2018-03-03T07:02:22.108Z,82.50
2018-03-03T07:04:50.345Z,82.20
2018-03-03T07:07:18.551Z,81.80
2018-03-03T07:09:46.750Z,81.00
2018-03-03T07:12:14.971Z,80.70
2018-03-03T07:14:43.178Z,79.30
2018-03-03T07:17:11.414Z,79.70
2018-03-03T07:19:39.600Z,79.90
2018-03-03T07:22:07.789Z,79.70
2018-03-03T07:24:35.979Z,80.20
2018-03-03T07:27:04.167Z,80.20
2018-03-03T07:29:32.354Z,80.40
2018-03-03T07:32:01.335Z,79.60
2018-03-03T07:34:29.526Z,79.60
2018-03-03T07:36:58.492Z,79.20
2018-03-03T07:39:26.696Z,79.10
2018-03-03T07:41:55.652Z,80.60
2018-03-03T07:44:23.832Z,80.60
2018-03-03T07:46:52.024Z,78.90
2018-03-03T07:49:20.221Z,77.90
2018-03-03T07:51:49.165Z,76.40
2018-03-03T07:54:17.380Z,76.30
2018-03-03T07:59:47.977Z,77.00
2018-03-03T08:02:16.193Z,76.90
2018-03-03T08:04:44.486Z,76.40
2018-03-03T08:07:13.474Z,76.00
2018-03-03T08:09:42.442Z,75.50
2018-03-03T08:12:10.627Z,75.50
2018-03-03T08:14:38.845Z,75.50
2018-03-03T08:17:07.038Z,74.70
2018-03-03T08:19:35.579Z,74.00
2018-03-03T08:22:03.825Z,73.30
2018-03-03T08:24:32.019Z,73.20
2018-03-03T08:27:00.244Z,72.50
2018-03-03T08:29:28.436Z,71.80
2018-03-03T08:31:56.644Z,71.30
2018-03-03T08:34:24.826Z,71.30
2018-03-03T08:36:53.859Z,70.50
2018-03-03T08:39:22.070Z,70.40
2018-03-03T08:41:50.246Z,70.80
2018-03-03T08:44:18.443Z,71.30
2018-03-03T08:46:46.628Z,71.10
2018-03-03T08:49:15.592Z,69.70
2018-03-03T08:51:43.870Z,69.60
2018-03-03T08:54:12.076Z,70.40
2018-03-03T08:56:41.026Z,78.80
2018-03-03T08:59:09.223Z,78.80
2018-03-03T09:01:37.399Z,76.60
2018-03-03T09:04:05.577Z,73.70
2018-03-03T09:06:33.782Z,70.70
2018-03-03T09:09:01.977Z,69.50
2018-03-03T09:11:30.154Z,68.90
2018-03-03T09:13:58.326Z,69.10
2018-03-03T09:16:26.515Z,70.00
2018-03-03T09:18:54.681Z,68.20
2018-03-03T09:21:22.865Z,68.70
2018-03-03T09:23:51.047Z,67.70
2018-03-03T09:26:19.222Z,67.70
2018-03-03T09:28:47.423Z,67.60
2018-03-03T09:31:15.617Z,66.20
2018-03-03T09:33:43.801Z,65.00
2018-03-03T09:36:11.996Z,64.60
2018-03-03T09:38:40.173Z,63.80
2018-03-03T09:41:08.366Z,62.90
2018-03-03T09:43:37.299Z,65.10
2018-03-03T09:46:06.303Z,64.30
2018-03-03T09:48:34.466Z,64.30
2018-03-03T09:51:03.408Z,65.40
2018-03-03T09:53:31.592Z,65.30
2018-03-03T09:55:59.804Z,65.90
2018-03-03T09:58:28.751Z,66.30
2018-03-03T10:00:56.964Z,66.20
2018-03-03T10:03:25.210Z,66.50
2018-03-03T10:05:53.378Z,66.40
2018-03-03T10:08:21.547Z,67.00
2018-03-03T10:10:49.730Z,67.20
2018-03-03T10:13:17.910Z,67.60
2018-03-03T10:15:46.252Z,67.60
2018-03-03T10:18:14.421Z,67.70
2018-03-03T10:20:42.625Z,68.10
2018-03-03T10:23:10.801Z,67.40
2018-03-03T10:25:38.990Z,68.00
2018-03-03T10:28:07.175Z,67.50
2018-03-03T10:30:35.362Z,67.60
2018-03-03T10:33:03.605Z,67.40
2018-03-03T10:35:31.768Z,67.60
2018-03-03T10:37:59.945Z,68.40
2018-03-03T10:40:28.156Z,69.30
2018-03-03T10:42:56.351Z,69.00
2018-03-03T10:45:25.358Z,69.10
2018-03-03T10:47:53.548Z,69.00
2018-03-03T10:50:21.720Z,67.60
2018-03-03T10:52:49.906Z,67.40
2018-03-03T10:55:18.095Z,66.40
2018-03-03T10:57:46.280Z,66.40
2018-03-03T11:00:29.234Z,66.10
2018-03-03T11:02:57.437Z,67.10
2018-03-03T11:05:25.641Z,67.40
2018-03-03T11:07:53.842Z,66.90
2018-03-03T11:10:22.031Z,67.30
2018-03-03T11:12:50.208Z,65.30
2018-03-03T11:15:18.412Z,64.10
2018-03-03T11:17:46.606Z,63.10
2018-03-03T11:20:14.785Z,64.00
2018-03-03T11:22:42.988Z,63.60
2018-03-03T11:25:11.171Z,59.90
2018-03-03T11:27:39.376Z,59.50
2018-03-03T11:30:08.349Z,57.40
2018-03-03T11:32:36.532Z,58.00
2018-03-03T11:35:05.471Z,58.60
2018-03-03T11:37:33.643Z,58.60
2018-03-03T11:40:01.816Z,58.90
2018-03-03T11:42:29.996Z,58.60
2018-03-03T11:44:58.214Z,58.00
2018-03-03T11:47:26.398Z,58.80
2018-03-03T11:49:55.357Z,59.40
2018-03-03T11:52:23.544Z,59.40
2018-03-03T11:54:51.730Z,60.60
2018-03-03T11:57:19.905Z,59.50
2018-03-03T11:59:48.090Z,59.70
2018-03-03T12:02:17.040Z,59.60
2018-03-03T12:04:45.225Z,59.60
2018-03-03T12:07:13.404Z,60.60
2018-03-03T12:09:41.610Z,60.70
2018-03-03T12:12:10.576Z,61.00
2018-03-03T12:14:38.758Z,61.00
2018-03-03T12:17:06.953Z,60.80
2018-03-03T12:19:35.916Z,60.50
2018-03-03T12:22:04.096Z,60.50
2018-03-03T12:24:32.271Z,59.20
2018-03-03T12:27:00.443Z,59.00
2018-03-03T12:29:28.643Z,58.70
2018-03-03T12:31:57.601Z,61.90
2018-03-03T12:34:25.812Z,61.90
2018-03-03T12:36:54.782Z,59.30
2018-03-03T12:39:22.974Z,59.20
2018-03-03T12:41:51.147Z,59.10
2018-03-03T12:44:19.347Z,58.40
2018-03-03T12:46:48.280Z,56.70
2018-03-03T12:49:16.470Z,56.60
2018-03-03T12:51:44.662Z,55.90
2018-03-03T12:54:12.873Z,56.30
2018-03-03T12:56:41.056Z,55.70
2018-03-03T12:59:09.242Z,55.40
2018-03-03T13:01:37.427Z,55.70
2018-03-03T13:04:05.609Z,55.30
2018-03-03T13:06:33.790Z,56.00
2018-03-03T13:09:01.986Z,57.10
2018-03-03T13:11:30.168Z,56.90
2018-03-03T13:13:59.179Z,56.80
2018-03-03T13:16:28.121Z,58.10
2018-03-03T13:18:56.287Z,57.50
2018-03-03T13:21:24.483Z,57.80
2018-03-03T13:23:52.655Z,57.30
2018-03-03T13:26:20.886Z,56.30
2018-03-03T13:28:49.062Z,56.50
2018-03-03T13:31:17.278Z,55.90
2018-03-03T13:33:45.452Z,55.90
2018-03-03T13:36:13.644Z,56.10
2018-03-03T13:38:41.851Z,56.40
2018-03-03T13:41:10.787Z,57.30
2018-03-03T13:43:38.956Z,57.30
2018-03-03T13:46:07.138Z,58.40
2018-03-03T13:48:35.342Z,59.30
2018-03-03T13:51:03.525Z,59.90
2018-03-03T13:53:32.467Z,61.90
2018-03-03T13:56:00.646Z,61.90
2018-03-03T13:58:28.818Z,60.10
2018-03-03T14:00:56.994Z,61.50
2018-03-03T14:03:25.198Z,62.30
2018-03-03T14:05:53.418Z,62.70
2018-03-03T14:08:21.607Z,62.10
2018-03-03T14:10:49.808Z,62.10
2018-03-03T14:13:18.019Z,62.10
2018-03-03T14:15:46.985Z,61.00
2018-03-03T14:18:15.184Z,60.80
2018-03-03T14:20:44.144Z,62.40
2018-03-03T14:23:12.326Z,62.30
2018-03-03T14:25:40.543Z,62.80
2018-03-03T14:28:08.741Z,61.40
2018-03-03T14:30:36.914Z,62.00
2018-03-03T14:33:05.122Z,62.10
2018-03-03T14:35:33.345Z,61.60
2018-03-03T14:38:01.530Z,61.50
2018-03-03T14:40:29.738Z,62.50
2018-03-03T14:42:57.927Z,63.10
2018-03-03T14:45:26.110Z,63.50
2018-03-03T14:47:54.283Z,64.30
2018-03-03T14:50:22.489Z,64.90
2018-03-03T14:52:50.682Z,66.10
2018-03-03T14:55:18.865Z,66.40
2018-03-03T14:57:47.038Z,66.80
2018-03-03T15:00:15.218Z,67.70
2018-03-03T15:02:43.410Z,67.70
2018-03-03T15:05:11.620Z,67.70
2018-03-03T15:07:39.813Z,67.90
2018-03-03T15:10:08.754Z,69.10
2018-03-03T15:12:36.969Z,69.00
2018-03-03T15:15:05.907Z,69.40
2018-03-03T15:17:34.091Z,69.30
2018-03-03T15:20:02.275Z,68.80
2018-03-03T15:22:30.498Z,68.70
2018-03-03T15:24:59.479Z,67.60
2018-03-03T15:27:28.431Z,67.10
2018-03-03T15:29:56.605Z,67.00
2018-03-03T15:32:24.782Z,67.30
2018-03-03T15:34:52.996Z,68.10
2018-03-03T15:37:21.963Z,69.10
2018-03-03T15:39:50.141Z,69.00
2018-03-03T15:42:18.338Z,68.70
2018-03-03T15:44:47.297Z,69.40
2018-03-03T15:47:15.527Z,69.30
2018-03-03T15:49:43.719Z,69.30
2018-03-03T15:52:11.918Z,68.90
2018-03-03T15:54:40.219Z,69.60
2018-03-03T15:57:08.408Z,70.00
2018-03-03T15:59:37.377Z,70.30
2018-03-03T16:02:05.566Z,70.30
2018-03-03T16:04:33.753Z,70.30
2018-03-03T16:07:02.703Z,71.10
2018-03-03T16:09:30.907Z,71.00
2018-03-03T16:11:59.097Z,71.70
2018-03-03T16:14:28.055Z,71.40
2018-03-03T16:16:56.262Z,71.30
2018-03-03T16:19:25.220Z,71.80
2018-03-03T16:21:53.399Z,71.60
2018-03-03T16:24:21.582Z,72.00
2018-03-03T16:26:49.756Z,72.40
2018-03-03T16:29:18.086Z,72.50
2018-03-03T16:31:46.270Z,73.40
2018-03-03T16:34:14.451Z,74.70
2018-03-03T16:36:42.650Z,73.40
2018-03-03T16:39:10.835Z,73.00
2018-03-03T16:41:39.023Z,73.40
2018-03-03T16:44:07.991Z,73.60
2018-03-03T16:46:36.221Z,73.50
2018-03-03T18:11:02.896Z,73.60
2018-03-03T18:13:32.747Z,77.30
2018-03-03T18:16:00.970Z,76.70
2018-03-03T18:18:32.922Z,77.00
2018-03-03T18:21:01.167Z,76.40
2018-03-03T18:23:29.358Z,76.30
2018-03-03T18:25:57.531Z,76.30
2018-03-03T18:28:25.732Z,76.70
2018-03-03T18:30:53.919Z,76.90
2018-03-03T18:33:22.120Z,76.90
2018-03-03T18:35:50.307Z,76.90
2018-03-03T18:38:18.479Z,77.30
2018-03-03T18:40:46.662Z,77.40
2018-03-03T18:43:14.850Z,77.20
2018-03-03T18:45:43.265Z,76.60
2018-03-03T18:48:11.468Z,76.90
2018-03-03T18:50:40.449Z,77.60
2018-03-03T18:53:09.408Z,77.60
2018-03-03T18:55:37.776Z,77.50
2018-03-03T18:58:06.051Z,77.30
2018-03-03T19:00:34.226Z,77.50
2018-03-03T19:03:02.465Z,78.00
2018-03-03T19:05:30.619Z,78.10
2018-03-03T19:07:58.802Z,77.70
2018-03-03T19:10:27.847Z,78.60
2018-03-03T19:12:56.027Z,78.60
2018-03-03T19:15:24.213Z,78.60
2018-03-03T19:17:52.435Z,78.70
2018-03-03T19:20:21.381Z,78.50
2018-03-03T19:22:49.556Z,78.50
2018-03-03T19:25:17.783Z,78.30
2018-03-03T19:27:45.989Z,78.00
2018-03-03T19:30:14.178Z,77.90
2018-03-03T19:32:42.350Z,77.80
2018-03-03T19:35:10.528Z,77.60
2018-03-03T19:37:38.729Z,77.90
2018-03-03T19:40:06.912Z,78.10
2018-03-03T19:42:35.874Z,78.50
2018-03-03T19:45:04.058Z,78.50
2018-03-03T19:47:32.253Z,78.10
2018-03-03T19:50:00.450Z,78.40
2018-03-03T19:52:28.653Z,78.60
2018-03-03T19:54:56.863Z,78.80
2018-03-03T19:57:25.071Z,78.70
2018-03-03T19:59:53.315Z,78.80
2018-03-03T20:02:21.499Z,78.40
2018-03-03T20:04:49.674Z,78.10
2018-03-03T20:07:17.838Z,78.40
2018-03-03T20:09:46.019Z,78.30
2018-03-03T20:12:14.230Z,78.30
2018-03-03T20:14:42.410Z,78.30
2018-03-03T20:17:10.587Z,78.10
2018-03-03T20:19:38.806Z,78.00
2018-03-03T20:22:06.986Z,78.00
2018-03-03T20:24:35.193Z,78.20
2018-03-03T20:27:04.130Z,78.40
2018-03-03T20:29:32.494Z,78.30
2018-03-03T20:32:00.655Z,78.00
2018-03-03T20:34:28.831Z,78.10
2018-03-03T20:36:57.026Z,78.50
2018-03-03T20:39:25.204Z,78.50
2018-03-03T20:41:53.408Z,78.60
2018-03-03T20:44:21.594Z,78.60
2018-03-03T20:46:49.788Z,78.30
2018-03-03T20:49:18.813Z,79.00
2018-03-03T20:51:46.990Z,78.90
2018-03-03T20:54:15.194Z,78.90
2018-03-03T20:56:43.381Z,78.80
2018-03-03T20:59:11.581Z,78.90
2018-03-03T21:01:40.535Z,78.80
2018-03-03T21:04:09.297Z,78.80
2018-03-03T21:06:37.507Z,78.60
2018-03-03T21:09:05.720Z,78.50
2018-03-03T21:11:37.573Z,78.80
2018-03-03T21:14:06.550Z,79.10
2018-03-03T21:16:34.729Z,79.00
2018-03-03T21:19:03.688Z,78.80
2018-03-03T21:21:31.884Z,78.80
2018-03-03T21:24:00.069Z,78.70
2018-03-03T21:26:29.025Z,78.30
2018-03-03T21:28:57.233Z,78.30
2018-03-03T21:31:25.432Z,78.30
2018-03-03T21:33:54.371Z,78.40
2018-03-03T21:36:22.588Z,78.40
2018-03-03T21:38:51.535Z,78.50
2018-03-03T21:41:19.705Z,78.50
2018-03-03T21:43:47.969Z,78.60
2018-03-03T21:46:16.168Z,78.70
2018-03-03T21:48:44.363Z,78.80
2018-03-03T21:51:12.547Z,78.50
2018-03-03T21:53:40.731Z,79.50
2018-03-03T21:56:09.691Z,78.60
2018-03-03T21:58:37.882Z,78.60
2018-03-03T22:01:06.073Z,78.50
2018-03-03T22:03:35.006Z,78.30
2018-03-03T22:06:03.362Z,78.30
2018-03-03T22:08:31.535Z,78.50
2018-03-03T22:11:00.467Z,79.10
2018-03-03T22:13:28.663Z,79.00
2018-03-03T22:15:56.880Z,79.00
2018-03-03T22:18:25.083Z,79.20
2018-03-03T22:20:53.294Z,79.00
2018-03-03T22:23:21.488Z,79.20
2018-03-03T22:25:50.446Z,79.40
2018-03-03T22:28:18.707Z,79.30
2018-03-03T22:30:46.887Z,79.30
2018-03-03T22:33:15.069Z,79.40
2018-03-03T22:35:43.407Z,79.60
2018-03-03T22:38:11.650Z,79.60
2018-03-03T22:40:39.836Z,79.50
2018-03-03T22:43:08.821Z,79.60
2018-03-03T22:45:37.782Z,79.00
2018-03-03T22:48:06.039Z,79.00
2018-03-03T22:50:34.221Z,78.90
2018-03-03T22:53:02.461Z,79.40
2018-03-03T22:55:30.665Z,80.20
2018-03-03T22:57:58.877Z,80.60
2018-03-03T23:00:27.085Z,80.10
2018-03-03T23:02:55.285Z,79.60
2018-03-03T23:05:23.468Z,79.40
2018-03-03T23:07:51.675Z,79.10
2018-03-03T23:10:19.873Z,79.10
2018-03-03T23:12:48.815Z,79.50
2018-03-03T23:15:17.016Z,79.30
2018-03-03T23:17:45.276Z,79.10
2018-03-03T23:20:13.468Z,79.20
2018-03-03T23:22:41.685Z,79.30
2018-03-03T23:25:09.877Z,79.00
2018-03-03T23:27:38.063Z,79.10
2018-03-03T23:30:06.298Z,78.90
2018-03-03T23:32:35.330Z,78.60
2018-03-03T23:35:03.614Z,78.60
2018-03-03T23:37:31.780Z,78.60
2018-03-03T23:40:00.011Z,78.70
2018-03-03T23:42:28.967Z,78.90
2018-03-03T23:44:57.152Z,78.80
2018-03-03T23:47:25.359Z,78.90
2018-03-03T23:49:54.317Z,79.00
2018-03-03T23:52:22.511Z,79.00
2018-03-03T23:54:50.692Z,78.80
2018-03-03T23:57:18.976Z,78.90
2018-03-03T23:59:47.163Z,79.00
